sensor_id;sensor_type;location;lat;lon;timestamp;P1;durP1;ratioP1;P2;durP2;ratioP2
34497;SDS011;20744;50.938;7.286;2023-03-20T17:00:25;8.60;;;2.40;;
34497;SDS011;20744;50.938;7.286;2023-03-20T17:02:57;7.72;;;2.83;;
34497;SDS011;20744;50.938;7.286;2023-03-20T17:05:32;8.63;;;2.53;;
34497;SDS011;20744;50.938;7.286;2023-03-20T17:08:02;10.18;;;2.58;;
34497;SDS011;20744;50.938;7.286;2023-03-20T17:10:30;9.55;;;2.22;;
34497;SDS011;20744;50.938;7.286;2023-03-20T17:12:58;12.93;;;2.72;;
34497;SDS011;20744;50.938;7.286;2023-03-20T17:15:26;8.65;;;2.50;;
34497;SDS011;20744;50.938;7.286;2023-03-20T17:17:53;10.52;;;1.80;;
34497;SDS011;20744;50.938;7.286;2023-03-20T17:20:21;6.68;;;1.65;;
34497;SDS011;20744;50.938;7.286;2023-03-20T17:22:49;8.48;;;2.13;;
34497;SDS011;20744;50.938;7.286;2023-03-20T17:25:17;5.70;;;2.05;;
34497;SDS011;20744;50.938;7.286;2023-03-20T17:27:45;6.43;;;2.17;;
34497;SDS011;20744;50.938;7.286;2023-03-20T17:30:14;11.10;;;2.30;;
34497;SDS011;20744;50.938;7.286;2023-03-20T17:32:43;8.02;;;2.30;;
34497;SDS011;20744;50.938;7.286;2023-03-20T17:35:11;10.43;;;2.72;;
34497;SDS011;20744;50.938;7.286;2023-03-20T17:37:38;7.55;;;2.17;;
34497;SDS011;20744;50.938;7.286;2023-03-20T17:40:06;9.55;;;3.47;;
34497;SDS011;20744;50.938;7.286;2023-03-20T17:42:36;8.10;;;3.00;;
34497;SDS011;20744;50.938;7.286;2023-03-20T17:45:04;8.00;;;2.95;;
34497;SDS011;20744;50.938;7.286;2023-03-20T17:47:31;8.18;;;2.50;;
34497;SDS011;20744;50.938;7.286;2023-03-20T17:50:00;9.20;;;2.78;;
34497;SDS011;20744;50.938;7.286;2023-03-20T17:52:28;7.47;;;2.42;;
34497;SDS011;20744;50.938;7.286;2023-03-20T17:54:55;10.15;;;2.50;;
34497;SDS011;20744;50.938;7.286;2023-03-20T17:57:23;11.20;;;2.63;;
34497;SDS011;20744;50.938;7.286;2023-03-20T17:59:52;8.55;;;2.72;;
34497;SDS011;20744;50.938;7.286;2023-03-20T18:02:19;9.68;;;2.50;;
34497;SDS011;20744;50.938;7.286;2023-03-20T18:04:46;9.90;;;2.50;;
34497;SDS011;20744;50.938;7.286;2023-03-20T18:07:15;7.72;;;2.30;;
34497;SDS011;20744;50.938;7.286;2023-03-20T18:09:43;6.78;;;2.13;;
34497;SDS011;20744;50.938;7.286;2023-03-20T18:12:12;7.57;;;2.50;;
34497;SDS011;20744;50.938;7.286;2023-03-20T18:14:39;7.88;;;2.22;;
34497;SDS011;20744;50.938;7.286;2023-03-20T18:17:06;8.38;;;2.30;;
34497;SDS011;20744;50.938;7.286;2023-03-20T18:19:34;8.10;;;2.53;;
34497;SDS011;20744;50.938;7.286;2023-03-20T18:22:01;9.82;;;2.45;;
34497;SDS011;20744;50.938;7.286;2023-03-20T18:24:30;12.55;;;3.20;;
34497;SDS011;20744;50.938;7.286;2023-03-20T18:26:57;9.32;;;3.08;;
34497;SDS011;20744;50.938;7.286;2023-03-20T18:29:25;13.23;;;2.55;;
34497;SDS011;20744;50.938;7.286;2023-03-20T18:31:52;7.85;;;2.10;;
34497;SDS011;20744;50.938;7.286;2023-03-20T18:34:19;9.93;;;2.45;;
34497;SDS011;20744;50.938;7.286;2023-03-20T18:36:46;5.43;;;2.40;;
34497;SDS011;20744;50.938;7.286;2023-03-20T18:39:17;8.55;;;2.65;;
34497;SDS011;20744;50.938;7.286;2023-03-20T18:41:46;10.63;;;2.95;;
34497;SDS011;20744;50.938;7.286;2023-03-20T18:44:13;8.07;;;2.80;;
34497;SDS011;20744;50.938;7.286;2023-03-20T18:46:41;8.63;;;3.05;;
34497;SDS011;20744;50.938;7.286;2023-03-20T18:49:11;7.18;;;3.10;;
34497;SDS011;20744;50.938;7.286;2023-03-20T18:51:39;15.20;;;4.28;;
34497;SDS011;20744;50.938;7.286;2023-03-20T18:54:06;9.40;;;2.92;;
34497;SDS011;20744;50.938;7.286;2023-03-20T18:56:33;10.45;;;2.47;;
34497;SDS011;20744;50.938;7.286;2023-03-20T18:59:03;9.75;;;2.50;;
34497;SDS011;20744;50.938;7.286;2023-03-20T19:01:31;9.32;;;2.88;;
34497;SDS011;20744;50.938;7.286;2023-03-20T19:03:59;13.05;;;2.47;;
34497;SDS011;20744;50.938;7.286;2023-03-20T19:06:27;6.55;;;2.60;;
34497;SDS011;20744;50.938;7.286;2023-03-20T19:08:56;14.27;;;3.20;;
34497;SDS011;20744;50.938;7.286;2023-03-20T19:11:23;9.13;;;2.53;;
34497;SDS011;20744;50.938;7.286;2023-03-20T19:13:51;8.35;;;2.20;;
34497;SDS011;20744;50.938;7.286;2023-03-20T19:16:23;9.48;;;2.90;;
34497;SDS011;20744;50.938;7.286;2023-03-20T19:18:51;8.95;;;2.55;;
34497;SDS011;20744;50.938;7.286;2023-03-20T19:21:18;8.30;;;2.25;;
34497;SDS011;20744;50.938;7.286;2023-03-20T19:23:50;8.10;;;2.10;;
34497;SDS011;20744;50.938;7.286;2023-03-20T19:26:17;9.63;;;2.42;;
34497;SDS011;20744;50.938;7.286;2023-03-20T19:28:45;7.10;;;2.00;;
34497;SDS011;20744;50.938;7.286;2023-03-20T19:31:13;8.02;;;1.75;;
34497;SDS011;20744;50.938;7.286;2023-03-20T19:33:42;11.80;;;2.47;;
34497;SDS011;20744;50.938;7.286;2023-03-20T19:36:17;8.55;;;2.17;;
34497;SDS011;20744;50.938;7.286;2023-03-20T19:38:47;10.50;;;2.10;;
34497;SDS011;20744;50.938;7.286;2023-03-20T19:41:14;7.05;;;2.15;;
34497;SDS011;20744;50.938;7.286;2023-03-20T19:43:41;7.65;;;2.22;;
34497;SDS011;20744;50.938;7.286;2023-03-20T19:46:09;8.45;;;2.60;;
34497;SDS011;20744;50.938;7.286;2023-03-20T19:48:38;8.88;;;2.40;;
34497;SDS011;20744;50.938;7.286;2023-03-20T19:51:08;7.35;;;2.22;;
34497;SDS011;20744;50.938;7.286;2023-03-20T19:53:38;10.60;;;2.35;;
34497;SDS011;20744;50.938;7.286;2023-03-20T19:56:06;7.53;;;2.47;;
34497;SDS011;20744;50.938;7.286;2023-03-20T19:58:33;7.28;;;2.08;;
34497;SDS011;20744;50.938;7.286;2023-03-20T20:01:00;14.23;;;1.83;;
34497;SDS011;20744;50.938;7.286;2023-03-20T20:03:28;11.15;;;2.47;;
34497;SDS011;20744;50.938;7.286;2023-03-20T20:05:55;8.00;;;2.10;;
34497;SDS011;20744;50.938;7.286;2023-03-20T20:08:25;8.15;;;2.13;;
34497;SDS011;20744;50.938;7.286;2023-03-20T20:10:52;6.13;;;1.95;;
34497;SDS011;20744;50.938;7.286;2023-03-20T20:13:20;9.82;;;2.35;;
34497;SDS011;20744;50.938;7.286;2023-03-20T20:15:48;6.93;;;1.88;;
34497;SDS011;20744;50.938;7.286;2023-03-20T20:18:16;8.77;;;2.22;;
34497;SDS011;20744;50.938;7.286;2023-03-20T20:20:44;11.55;;;2.38;;
34497;SDS011;20744;50.938;7.286;2023-03-20T20:23:15;8.40;;;2.30;;
34497;SDS011;20744;50.938;7.286;2023-03-20T20:25:44;7.78;;;2.38;;
34497;SDS011;20744;50.938;7.286;2023-03-20T20:28:12;6.68;;;2.55;;
34497;SDS011;20744;50.938;7.286;2023-03-20T20:30:41;7.50;;;2.20;;
34497;SDS011;20744;50.938;7.286;2023-03-20T20:33:09;11.48;;;2.78;;
34497;SDS011;20744;50.938;7.286;2023-03-20T20:35:36;7.97;;;2.38;;
34497;SDS011;20744;50.938;7.286;2023-03-20T20:38:03;11.93;;;2.17;;
34497;SDS011;20744;50.938;7.286;2023-03-20T20:40:30;6.95;;;2.33;;
34497;SDS011;20744;50.938;7.286;2023-03-20T20:42:59;8.52;;;2.47;;
34497;SDS011;20744;50.938;7.286;2023-03-20T20:45:27;8.43;;;2.63;;
34497;SDS011;20744;50.938;7.286;2023-03-20T20:47:54;12.60;;;3.03;;
34497;SDS011;20744;50.938;7.286;2023-03-20T20:50:22;8.68;;;2.70;;
34497;SDS011;20744;50.938;7.286;2023-03-20T20:52:51;9.00;;;2.90;;
34497;SDS011;20744;50.938;7.286;2023-03-20T20:55:19;14.73;;;3.33;;
34497;SDS011;20744;50.938;7.286;2023-03-20T20:57:46;13.32;;;3.10;;
34497;SDS011;20744;50.938;7.286;2023-03-20T21:00:16;10.40;;;3.03;;
34497;SDS011;20744;50.938;7.286;2023-03-20T21:02:43;9.60;;;2.78;;
34497;SDS011;20744;50.938;7.286;2023-03-20T21:05:11;9.48;;;2.88;;
34497;SDS011;20744;50.938;7.286;2023-03-20T21:07:40;13.23;;;3.20;;
34497;SDS011;20744;50.938;7.286;2023-03-20T21:10:08;8.63;;;3.40;;
34497;SDS011;20744;50.938;7.286;2023-03-20T21:12:36;8.30;;;3.03;;
34497;SDS011;20744;50.938;7.286;2023-03-20T21:15:03;9.20;;;2.63;;
34497;SDS011;20744;50.938;7.286;2023-03-20T21:17:32;9.43;;;3.15;;
34497;SDS011;20744;50.938;7.286;2023-03-20T21:19:59;9.82;;;3.03;;
34497;SDS011;20744;50.938;7.286;2023-03-20T21:22:27;16.15;;;3.30;;
34497;SDS011;20744;50.938;7.286;2023-03-20T21:24:54;10.07;;;2.95;;
34497;SDS011;20744;50.938;7.286;2023-03-20T21:27:21;15.75;;;4.45;;
34497;SDS011;20744;50.938;7.286;2023-03-20T21:29:49;11.60;;;3.00;;
34497;SDS011;20744;50.938;7.286;2023-03-20T21:32:17;7.85;;;3.33;;
34497;SDS011;20744;50.938;7.286;2023-03-20T21:34:46;7.85;;;3.50;;
34497;SDS011;20744;50.938;7.286;2023-03-20T21:37:14;9.38;;;3.08;;
34497;SDS011;20744;50.938;7.286;2023-03-20T21:39:41;10.20;;;3.35;;
34497;SDS011;20744;50.938;7.286;2023-03-20T21:42:09;12.38;;;2.88;;
34497;SDS011;20744;50.938;7.286;2023-03-20T21:44:36;8.57;;;3.25;;
34497;SDS011;20744;50.938;7.286;2023-03-20T21:47:03;10.23;;;3.38;;
34497;SDS011;20744;50.938;7.286;2023-03-20T21:49:31;8.23;;;3.92;;
34497;SDS011;20744;50.938;7.286;2023-03-20T21:51:59;10.52;;;4.00;;
34497;SDS011;20744;50.938;7.286;2023-03-20T21:54:27;7.63;;;3.40;;
34497;SDS011;20744;50.938;7.286;2023-03-20T21:56:57;11.55;;;3.88;;
34497;SDS011;20744;50.938;7.286;2023-03-20T21:59:25;10.85;;;3.75;;
34497;SDS011;20744;50.938;7.286;2023-03-20T22:01:52;13.82;;;4.10;;
34497;SDS011;20744;50.938;7.286;2023-03-20T22:04:19;10.60;;;4.03;;
34497;SDS011;20744;50.938;7.286;2023-03-20T22:06:46;11.07;;;4.38;;
34497;SDS011;20744;50.938;7.286;2023-03-20T22:09:15;13.02;;;4.38;;
34497;SDS011;20744;50.938;7.286;2023-03-20T22:11:42;11.90;;;4.10;;
34497;SDS011;20744;50.938;7.286;2023-03-20T22:14:09;8.80;;;4.28;;
34497;SDS011;20744;50.938;7.286;2023-03-20T22:16:37;11.13;;;4.20;;
34497;SDS011;20744;50.938;7.286;2023-03-20T22:19:04;11.05;;;3.55;;
34497;SDS011;20744;50.938;7.286;2023-03-20T22:21:31;9.90;;;3.65;;
34497;SDS011;20744;50.938;7.286;2023-03-20T22:23:58;11.73;;;3.53;;
34497;SDS011;20744;50.938;7.286;2023-03-20T22:26:27;9.75;;;3.45;;
34497;SDS011;20744;50.938;7.286;2023-03-20T22:28:54;11.13;;;3.60;;
34497;SDS011;20744;50.938;7.286;2023-03-20T22:31:22;7.45;;;3.08;;
34497;SDS011;20744;50.938;7.286;2023-03-20T22:33:49;9.35;;;3.30;;
34497;SDS011;20744;50.938;7.286;2023-03-20T22:36:16;10.07;;;3.55;;
34497;SDS011;20744;50.938;7.286;2023-03-20T22:38:44;13.57;;;3.20;;
34497;SDS011;20744;50.938;7.286;2023-03-20T22:41:12;10.13;;;4.18;;
34497;SDS011;20744;50.938;7.286;2023-03-20T22:43:41;15.32;;;3.65;;
34497;SDS011;20744;50.938;7.286;2023-03-20T22:46:08;12.98;;;4.07;;
34497;SDS011;20744;50.938;7.286;2023-03-20T22:48:36;13.00;;;4.25;;
34497;SDS011;20744;50.938;7.286;2023-03-20T22:51:03;11.73;;;4.22;;
34497;SDS011;20744;50.938;7.286;2023-03-20T22:53:31;8.88;;;4.25;;
34497;SDS011;20744;50.938;7.286;2023-03-20T22:55:59;12.80;;;5.10;;
34497;SDS011;20744;50.938;7.286;2023-03-20T22:58:26;19.08;;;5.35;;
34497;SDS011;20744;50.938;7.286;2023-03-20T23:00:55;14.02;;;5.53;;
34497;SDS011;20744;50.938;7.286;2023-03-20T23:03:22;9.98;;;4.38;;
34497;SDS011;20744;50.938;7.286;2023-03-20T23:05:50;7.97;;;3.53;;
34497;SDS011;20744;50.938;7.286;2023-03-20T23:08:18;10.93;;;3.53;;
34497;SDS011;20744;50.938;7.286;2023-03-20T23:10:46;12.45;;;3.75;;
34497;SDS011;20744;50.938;7.286;2023-03-20T23:13:14;12.13;;;3.88;;
34497;SDS011;20744;50.938;7.286;2023-03-20T23:15:43;10.30;;;3.92;;
34497;SDS011;20744;50.938;7.286;2023-03-20T23:18:12;12.10;;;3.78;;
34497;SDS011;20744;50.938;7.286;2023-03-20T23:20:40;10.52;;;3.63;;
34497;SDS011;20744;50.938;7.286;2023-03-20T23:23:07;11.13;;;3.90;;
34497;SDS011;20744;50.938;7.286;2023-03-20T23:25:34;7.72;;;3.90;;
34497;SDS011;20744;50.938;7.286;2023-03-20T23:28:02;10.77;;;3.90;;
34497;SDS011;20744;50.938;7.286;2023-03-20T23:30:29;10.38;;;3.88;;
34497;SDS011;20744;50.938;7.286;2023-03-20T23:32:56;12.77;;;3.83;;
34497;SDS011;20744;50.938;7.286;2023-03-20T23:35:25;10.48;;;3.80;;
34497;SDS011;20744;50.938;7.286;2023-03-20T23:37:52;7.97;;;3.50;;
34497;SDS011;20744;50.938;7.286;2023-03-20T23:40:19;6.55;;;3.53;;
34497;SDS011;20744;50.938;7.286;2023-03-20T23:42:47;10.25;;;3.20;;
34497;SDS011;20744;50.938;7.286;2023-03-20T23:45:14;8.57;;;3.65;;
34497;SDS011;20744;50.938;7.286;2023-03-20T23:47:41;12.65;;;3.50;;
34497;SDS011;20744;50.938;7.286;2023-03-20T23:50:09;8.57;;;3.20;;
34497;SDS011;20744;50.938;7.286;2023-03-20T23:52:38;11.10;;;3.20;;
34497;SDS011;20744;50.938;7.286;2023-03-20T23:55:06;9.25;;;3.38;;
34497;SDS011;20744;50.938;7.286;2023-03-20T23:57:33;10.55;;;2.90;;
